Terminal Aerodrome Forecast
Issued by NWS Blacksburg, VA

Current Version | Previous Version | Text Only | Print | Product List | Glossary Off
Versions: 1 2 3 4 5 6 7 8 9 10 11 12 13 14 15 16 17 18

000
FTUS41 KRNK 061139
TAFBLF
TAF
KBLF 061139Z 0612/0712 15013G26KT 6SM -RA BR BKN010 OVC050
      TEMPO 0614/0618 4SM RA SCT010 OVC030
     FM061800 16008KT 3SM -RA BR OVC007
     FM070200 28007KT 4SM -DZ BR OVC005=

USA.gov is the U.S. government's official web portal to all federal, state and local government web resources and services.